sensor_id;sensor_type;location;lat;lon;timestamp;temperature;humidity
76120;DHT22;64852;48.092;-1.640;2022-11-04T00:01:40;13.60;99.90
76120;DHT22;64852;48.092;-1.640;2022-11-04T00:04:07;13.50;99.90
76120;DHT22;64852;48.092;-1.640;2022-11-04T00:06:33;13.60;99.90
76120;DHT22;64852;48.092;-1.640;2022-11-04T00:08:58;13.50;99.90
76120;DHT22;64852;48.092;-1.640;2022-11-04T00:11:26;13.50;99.90
76120;DHT22;64852;48.092;-1.640;2022-11-04T00:14:12;13.50;99.90
76120;DHT22;64852;48.092;-1.640;2022-11-04T00:16:38;13.40;99.90
76120;DHT22;64852;48.092;-1.640;2022-11-04T00:19:22;13.50;99.90
76120;DHT22;64852;48.092;-1.640;2022-11-04T00:21:48;13.50;99.90
76120;DHT22;64852;48.092;-1.640;2022-11-04T00:24:33;13.60;99.90
76120;DHT22;64852;48.092;-1.640;2022-11-04T00:27:08;13.60;99.90
76120;DHT22;64852;48.092;-1.640;2022-11-04T00:29:53;13.40;99.90
76120;DHT22;64852;48.092;-1.640;2022-11-04T00:32:18;13.30;99.90
76120;DHT22;64852;48.092;-1.640;2022-11-04T00:35:03;13.40;99.90
76120;DHT22;64852;48.092;-1.640;2022-11-04T00:37:29;13.10;99.90
76120;DHT22;64852;48.092;-1.640;2022-11-04T00:39:55;13.20;99.90
76120;DHT22;64852;48.092;-1.640;2022-11-04T00:42:20;13.30;99.90
76120;DHT22;64852;48.092;-1.640;2022-11-04T00:44:46;13.40;99.90
76120;DHT22;64852;48.092;-1.640;2022-11-04T00:47:11;13.30;99.90
76120;DHT22;64852;48.092;-1.640;2022-11-04T00:49:37;13.40;99.90
76120;DHT22;64852;48.092;-1.640;2022-11-04T00:52:03;13.30;99.90
76120;DHT22;64852;48.092;-1.640;2022-11-04T00:54:28;13.40;99.90
76120;DHT22;64852;48.092;-1.640;2022-11-04T00:56:54;13.50;99.90
76120;DHT22;64852;48.092;-1.640;2022-11-04T00:59:20;13.50;99.90
76120;DHT22;64852;48.092;-1.640;2022-11-04T01:01:45;13.50;99.90
76120;DHT22;64852;48.092;-1.640;2022-11-04T01:04:11;13.40;99.90
76120;DHT22;64852;48.092;-1.640;2022-11-04T01:06:36;13.30;99.90
76120;DHT22;64852;48.092;-1.640;2022-11-04T01:09:06;13.40;99.90
76120;DHT22;64852;48.092;-1.640;2022-11-04T01:11:34;13.30;99.90
76120;DHT22;64852;48.092;-1.640;2022-11-04T01:14:00;13.10;99.90
76120;DHT22;64852;48.092;-1.640;2022-11-04T01:16:27;12.90;99.90
76120;DHT22;64852;48.092;-1.640;2022-11-04T01:18:53;12.80;99.90
76120;DHT22;64852;48.092;-1.640;2022-11-04T01:21:19;12.90;99.90
76120;DHT22;64852;48.092;-1.640;2022-11-04T01:23:45;12.80;99.90
76120;DHT22;64852;48.092;-1.640;2022-11-04T01:26:19;12.70;99.90
76120;DHT22;64852;48.092;-1.640;2022-11-04T01:28:46;12.70;99.90
76120;DHT22;64852;48.092;-1.640;2022-11-04T01:31:14;12.70;99.90
76120;DHT22;64852;48.092;-1.640;2022-11-04T01:33:39;12.70;99.90
76120;DHT22;64852;48.092;-1.640;2022-11-04T01:36:06;12.60;99.90
76120;DHT22;64852;48.092;-1.640;2022-11-04T01:38:33;12.60;99.90
76120;DHT22;64852;48.092;-1.640;2022-11-04T01:40:58;12.60;99.90
76120;DHT22;64852;48.092;-1.640;2022-11-04T01:46:11;12.30;99.90
76120;DHT22;64852;48.092;-1.640;2022-11-04T01:48:38;12.50;99.90
76120;DHT22;64852;48.092;-1.640;2022-11-04T01:51:03;12.40;99.90
76120;DHT22;64852;48.092;-1.640;2022-11-04T01:53:33;12.40;99.90
76120;DHT22;64852;48.092;-1.640;2022-11-04T01:56:05;12.10;99.90
76120;DHT22;64852;48.092;-1.640;2022-11-04T01:58:42;12.00;99.90
76120;DHT22;64852;48.092;-1.640;2022-11-04T02:01:11;11.90;99.90
76120;DHT22;64852;48.092;-1.640;2022-11-04T02:03:38;12.00;99.90
76120;DHT22;64852;48.092;-1.640;2022-11-04T02:06:05;12.00;99.90
76120;DHT22;64852;48.092;-1.640;2022-11-04T02:08:32;11.90;99.90
76120;DHT22;64852;48.092;-1.640;2022-11-04T02:11:00;12.10;99.90
76120;DHT22;64852;48.092;-1.640;2022-11-04T02:13:27;11.90;99.90
76120;DHT22;64852;48.092;-1.640;2022-11-04T02:16:15;11.80;99.90
76120;DHT22;64852;48.092;-1.640;2022-11-04T02:24:47;12.10;99.90
76120;DHT22;64852;48.092;-1.640;2022-11-04T02:30:18;11.90;99.90
76120;DHT22;64852;48.092;-1.640;2022-11-04T02:44:05;11.70;99.90
76120;DHT22;64852;48.092;-1.640;2022-11-04T02:46:36;11.70;99.90
76120;DHT22;64852;48.092;-1.640;2022-11-04T02:49:18;11.60;99.90
76120;DHT22;64852;48.092;-1.640;2022-11-04T02:54:32;11.60;99.90
76120;DHT22;64852;48.092;-1.640;2022-11-04T02:57:00;11.40;99.90
76120;DHT22;64852;48.092;-1.640;2022-11-04T02:59:39;11.60;99.90
76120;DHT22;64852;48.092;-1.640;2022-11-04T03:02:18;11.40;99.90
76120;DHT22;64852;48.092;-1.640;2022-11-04T03:04:47;11.60;99.90
76120;DHT22;64852;48.092;-1.640;2022-11-04T03:07:17;11.70;99.90
76120;DHT22;64852;48.092;-1.640;2022-11-04T03:09:50;11.50;99.90
76120;DHT22;64852;48.092;-1.640;2022-11-04T03:12:21;11.40;99.90
76120;DHT22;64852;48.092;-1.640;2022-11-04T03:14:58;11.50;99.90
76120;DHT22;64852;48.092;-1.640;2022-11-04T03:17:45;11.60;99.90
76120;DHT22;64852;48.092;-1.640;2022-11-04T03:20:21;11.60;99.90
76120;DHT22;64852;48.092;-1.640;2022-11-04T03:22:47;11.60;99.90
76120;DHT22;64852;48.092;-1.640;2022-11-04T03:25:13;11.60;99.90
76120;DHT22;64852;48.092;-1.640;2022-11-04T03:30:20;11.90;99.90
76120;DHT22;64852;48.092;-1.640;2022-11-04T03:33:02;11.80;99.90
76120;DHT22;64852;48.092;-1.640;2022-11-04T03:35:30;11.80;99.90
76120;DHT22;64852;48.092;-1.640;2022-11-04T03:37:57;11.60;99.90
76120;DHT22;64852;48.092;-1.640;2022-11-04T03:40:23;11.70;99.90
76120;DHT22;64852;48.092;-1.640;2022-11-04T03:42:59;11.70;99.90
76120;DHT22;64852;48.092;-1.640;2022-11-04T03:45:28;11.40;99.90
76120;DHT22;64852;48.092;-1.640;2022-11-04T03:47:55;11.40;99.90
76120;DHT22;64852;48.092;-1.640;2022-11-04T03:50:28;11.50;99.90
76120;DHT22;64852;48.092;-1.640;2022-11-04T03:52:55;11.50;99.90
76120;DHT22;64852;48.092;-1.640;2022-11-04T03:55:25;11.70;99.90
76120;DHT22;64852;48.092;-1.640;2022-11-04T04:01:27;11.60;99.90
76120;DHT22;64852;48.092;-1.640;2022-11-04T04:06:38;11.70;99.90
76120;DHT22;64852;48.092;-1.640;2022-11-04T04:09:23;11.80;99.90
76120;DHT22;64852;48.092;-1.640;2022-11-04T04:11:56;11.90;99.90
76120;DHT22;64852;48.092;-1.640;2022-11-04T04:14:38;11.90;99.90
76120;DHT22;64852;48.092;-1.640;2022-11-04T04:20:09;11.90;99.90
76120;DHT22;64852;48.092;-1.640;2022-11-04T04:22:42;11.90;99.90
76120;DHT22;64852;48.092;-1.640;2022-11-04T04:25:10;11.90;99.90
76120;DHT22;64852;48.092;-1.640;2022-11-04T04:27:56;12.00;99.90
76120;DHT22;64852;48.092;-1.640;2022-11-04T04:30:23;12.10;99.90
76120;DHT22;64852;48.092;-1.640;2022-11-04T04:32:57;12.10;99.90
76120;DHT22;64852;48.092;-1.640;2022-11-04T04:35:32;12.00;99.90
76120;DHT22;64852;48.092;-1.640;2022-11-04T04:38:29;12.10;99.90
76120;DHT22;64852;48.092;-1.640;2022-11-04T04:41:29;12.00;99.90
76120;DHT22;64852;48.092;-1.640;2022-11-04T04:47:03;12.20;99.90
76120;DHT22;64852;48.092;-1.640;2022-11-04T04:49:29;12.30;99.90
76120;DHT22;64852;48.092;-1.640;2022-11-04T04:51:59;12.20;99.90
76120;DHT22;64852;48.092;-1.640;2022-11-04T04:54:26;12.10;99.90
76120;DHT22;64852;48.092;-1.640;2022-11-04T04:56:52;11.90;99.90
76120;DHT22;64852;48.092;-1.640;2022-11-04T04:59:17;11.90;99.90
76120;DHT22;64852;48.092;-1.640;2022-11-04T05:01:43;11.70;99.90
76120;DHT22;64852;48.092;-1.640;2022-11-04T05:04:09;11.60;99.90
76120;DHT22;64852;48.092;-1.640;2022-11-04T05:06:34;11.60;99.90
76120;DHT22;64852;48.092;-1.640;2022-11-04T05:09:00;11.50;99.90
76120;DHT22;64852;48.092;-1.640;2022-11-04T05:11:25;11.60;99.90
76120;DHT22;64852;48.092;-1.640;2022-11-04T05:13:51;11.50;99.90
76120;DHT22;64852;48.092;-1.640;2022-11-04T05:16:17;11.60;99.90
76120;DHT22;64852;48.092;-1.640;2022-11-04T05:18:42;11.70;99.90
76120;DHT22;64852;48.092;-1.640;2022-11-04T05:21:11;11.80;99.90
76120;DHT22;64852;48.092;-1.640;2022-11-04T05:23:37;11.80;99.90
76120;DHT22;64852;48.092;-1.640;2022-11-04T05:26:03;11.80;99.90
76120;DHT22;64852;48.092;-1.640;2022-11-04T05:28:29;11.80;99.90
76120;DHT22;64852;48.092;-1.640;2022-11-04T05:30:56;11.80;99.90
76120;DHT22;64852;48.092;-1.640;2022-11-04T05:33:21;11.80;99.90
76120;DHT22;64852;48.092;-1.640;2022-11-04T05:35:47;11.80;99.90
76120;DHT22;64852;48.092;-1.640;2022-11-04T05:38:13;11.80;99.90
76120;DHT22;64852;48.092;-1.640;2022-11-04T05:40:38;11.70;99.90
76120;DHT22;64852;48.092;-1.640;2022-11-04T05:43:04;11.70;99.90
76120;DHT22;64852;48.092;-1.640;2022-11-04T05:45:30;11.60;99.90
76120;DHT22;64852;48.092;-1.640;2022-11-04T05:48:03;11.40;99.90
76120;DHT22;64852;48.092;-1.640;2022-11-04T05:50:31;11.40;99.90
76120;DHT22;64852;48.092;-1.640;2022-11-04T05:52:58;11.40;99.90
76120;DHT22;64852;48.092;-1.640;2022-11-04T05:55:24;11.30;99.90
76120;DHT22;64852;48.092;-1.640;2022-11-04T05:57:50;11.20;99.90
76120;DHT22;64852;48.092;-1.640;2022-11-04T06:00:15;11.20;99.90
76120;DHT22;64852;48.092;-1.640;2022-11-04T06:02:41;11.20;99.90
76120;DHT22;64852;48.092;-1.640;2022-11-04T06:05:07;11.10;99.90
76120;DHT22;64852;48.092;-1.640;2022-11-04T06:07:33;11.20;99.90
76120;DHT22;64852;48.092;-1.640;2022-11-04T06:09:59;11.40;99.90
76120;DHT22;64852;48.092;-1.640;2022-11-04T06:12:25;11.40;99.90
76120;DHT22;64852;48.092;-1.640;2022-11-04T06:14:50;11.40;99.90
76120;DHT22;64852;48.092;-1.640;2022-11-04T06:17:18;11.60;99.90
76120;DHT22;64852;48.092;-1.640;2022-11-04T06:19:44;11.70;99.90
76120;DHT22;64852;48.092;-1.640;2022-11-04T06:22:11;11.60;99.90
76120;DHT22;64852;48.092;-1.640;2022-11-04T06:24:38;11.50;99.90
76120;DHT22;64852;48.092;-1.640;2022-11-04T06:27:03;11.40;99.90
76120;DHT22;64852;48.092;-1.640;2022-11-04T06:29:29;11.50;99.90
76120;DHT22;64852;48.092;-1.640;2022-11-04T06:31:55;11.60;99.90
76120;DHT22;64852;48.092;-1.640;2022-11-04T06:34:21;11.60;99.90
76120;DHT22;64852;48.092;-1.640;2022-11-04T06:36:48;11.40;99.90
76120;DHT22;64852;48.092;-1.640;2022-11-04T06:39:14;11.50;99.90
76120;DHT22;64852;48.092;-1.640;2022-11-04T06:41:39;11.60;99.90
76120;DHT22;64852;48.092;-1.640;2022-11-04T06:44:05;11.70;99.90
76120;DHT22;64852;48.092;-1.640;2022-11-04T06:46:40;11.70;99.90
76120;DHT22;64852;48.092;-1.640;2022-11-04T06:49:10;11.70;99.90
76120;DHT22;64852;48.092;-1.640;2022-11-04T06:51:36;11.60;99.90
76120;DHT22;64852;48.092;-1.640;2022-11-04T06:54:02;11.60;99.90
76120;DHT22;64852;48.092;-1.640;2022-11-04T06:56:27;11.80;99.90
76120;DHT22;64852;48.092;-1.640;2022-11-04T06:58:54;12.00;99.90
76120;DHT22;64852;48.092;-1.640;2022-11-04T07:01:22;12.00;99.90
76120;DHT22;64852;48.092;-1.640;2022-11-04T07:03:53;12.10;99.90
76120;DHT22;64852;48.092;-1.640;2022-11-04T07:06:20;12.10;99.90
76120;DHT22;64852;48.092;-1.640;2022-11-04T07:08:50;12.00;99.90
76120;DHT22;64852;48.092;-1.640;2022-11-04T07:11:18;11.90;99.90
76120;DHT22;64852;48.092;-1.640;2022-11-04T07:13:44;11.70;99.90
76120;DHT22;64852;48.092;-1.640;2022-11-04T07:16:10;11.80;99.90
76120;DHT22;64852;48.092;-1.640;2022-11-04T07:18:35;12.00;99.90
76120;DHT22;64852;48.092;-1.640;2022-11-04T07:21:02;12.10;99.90
76120;DHT22;64852;48.092;-1.640;2022-11-04T07:23:28;12.10;99.90
76120;DHT22;64852;48.092;-1.640;2022-11-04T07:26:01;12.30;99.90
76120;DHT22;64852;48.092;-1.640;2022-11-04T07:28:27;12.40;99.90
76120;DHT22;64852;48.092;-1.640;2022-11-04T07:30:57;12.50;99.90
76120;DHT22;64852;48.092;-1.640;2022-11-04T07:33:24;12.50;99.90
76120;DHT22;64852;48.092;-1.640;2022-11-04T07:35:49;12.40;99.90
76120;DHT22;64852;48.092;-1.640;2022-11-04T07:38:15;12.30;99.90
76120;DHT22;64852;48.092;-1.640;2022-11-04T07:40:41;12.50;99.90
76120;DHT22;64852;48.092;-1.640;2022-11-04T07:43:06;12.50;99.90
76120;DHT22;64852;48.092;-1.640;2022-11-04T07:45:32;12.50;99.90
76120;DHT22;64852;48.092;-1.640;2022-11-04T07:47:58;12.70;99.90
76120;DHT22;64852;48.092;-1.640;2022-11-04T07:50:23;12.70;99.90
76120;DHT22;64852;48.092;-1.640;2022-11-04T07:52:49;12.80;99.90
76120;DHT22;64852;48.092;-1.640;2022-11-04T07:55:18;12.80;99.90
76120;DHT22;64852;48.092;-1.640;2022-11-04T07:57:44;13.00;99.90
76120;DHT22;64852;48.092;-1.640;2022-11-04T08:00:11;13.00;99.90
76120;DHT22;64852;48.092;-1.640;2022-11-04T08:02:37;13.00;99.90
76120;DHT22;64852;48.092;-1.640;2022-11-04T08:05:03;13.10;99.90
76120;DHT22;64852;48.092;-1.640;2022-11-04T08:07:30;13.30;99.90
76120;DHT22;64852;48.092;-1.640;2022-11-04T08:09:56;13.10;99.90
76120;DHT22;64852;48.092;-1.640;2022-11-04T08:12:22;13.10;99.90
76120;DHT22;64852;48.092;-1.640;2022-11-04T08:14:48;13.20;99.90
76120;DHT22;64852;48.092;-1.640;2022-11-04T08:17:14;13.20;99.90
76120;DHT22;64852;48.092;-1.640;2022-11-04T08:19:40;13.30;99.90
76120;DHT22;64852;48.092;-1.640;2022-11-04T08:22:06;13.40;99.90
76120;DHT22;64852;48.092;-1.640;2022-11-04T08:24:33;13.30;99.90
76120;DHT22;64852;48.092;-1.640;2022-11-04T08:26:58;13.40;99.90
76120;DHT22;64852;48.092;-1.640;2022-11-04T08:29:24;13.40;99.90
76120;DHT22;64852;48.092;-1.640;2022-11-04T08:31:49;13.30;99.90
76120;DHT22;64852;48.092;-1.640;2022-11-04T08:34:15;13.30;99.90
76120;DHT22;64852;48.092;-1.640;2022-11-04T08:36:43;13.50;99.90
76120;DHT22;64852;48.092;-1.640;2022-11-04T08:39:10;13.40;99.90
76120;DHT22;64852;48.092;-1.640;2022-11-04T08:41:37;13.50;99.90
76120;DHT22;64852;48.092;-1.640;2022-11-04T08:44:05;13.50;99.90
76120;DHT22;64852;48.092;-1.640;2022-11-04T08:46:34;13.60;99.90
76120;DHT22;64852;48.092;-1.640;2022-11-04T08:49:00;13.50;99.90
76120;DHT22;64852;48.092;-1.640;2022-11-04T08:51:26;13.60;99.90
76120;DHT22;64852;48.092;-1.640;2022-11-04T08:53:52;13.60;99.90
76120;DHT22;64852;48.092;-1.640;2022-11-04T08:56:38;13.60;99.90
76120;DHT22;64852;48.092;-1.640;2022-11-04T08:59:05;13.80;99.90
76120;DHT22;64852;48.092;-1.640;2022-11-04T09:01:31;13.60;99.90
76120;DHT22;64852;48.092;-1.640;2022-11-04T09:03:58;13.50;99.90
76120;DHT22;64852;48.092;-1.640;2022-11-04T09:06:26;13.40;99.90
76120;DHT22;64852;48.092;-1.640;2022-11-04T09:08:53;13.50;99.90
76120;DHT22;64852;48.092;-1.640;2022-11-04T09:11:26;13.70;99.90
76120;DHT22;64852;48.092;-1.640;2022-11-04T09:13:51;13.60;99.90
76120;DHT22;64852;48.092;-1.640;2022-11-04T09:16:17;13.70;99.90
76120;DHT22;64852;48.092;-1.640;2022-11-04T09:18:43;13.80;99.90
76120;DHT22;64852;48.092;-1.640;2022-11-04T09:21:09;13.70;99.90
76120;DHT22;64852;48.092;-1.640;2022-11-04T09:23:35;13.80;99.90
76120;DHT22;64852;48.092;-1.640;2022-11-04T09:26:12;14.00;99.90
76120;DHT22;64852;48.092;-1.640;2022-11-04T09:28:38;14.10;99.90
76120;DHT22;64852;48.092;-1.640;2022-11-04T09:31:10;14.10;99.90
76120;DHT22;64852;48.092;-1.640;2022-11-04T09:33:36;14.10;99.90
76120;DHT22;64852;48.092;-1.640;2022-11-04T09:36:02;14.00;99.90
76120;DHT22;64852;48.092;-1.640;2022-11-04T09:38:27;14.10;99.90
76120;DHT22;64852;48.092;-1.640;2022-11-04T09:40:53;14.30;99.90
76120;DHT22;64852;48.092;-1.640;2022-11-04T09:46:00;14.30;99.90
76120;DHT22;64852;48.092;-1.640;2022-11-04T09:48:45;14.30;99.90
76120;DHT22;64852;48.092;-1.640;2022-11-04T09:51:13;14.40;99.90
76120;DHT22;64852;48.092;-1.640;2022-11-04T09:53:54;14.50;99.90
76120;DHT22;64852;48.092;-1.640;2022-11-04T09:56:27;14.70;99.90
76120;DHT22;64852;48.092;-1.640;2022-11-04T09:58:53;14.70;99.90
76120;DHT22;64852;48.092;-1.640;2022-11-04T10:09:23;14.50;99.90
76120;DHT22;64852;48.092;-1.640;2022-11-04T10:12:01;14.40;99.90
76120;DHT22;64852;48.092;-1.640;2022-11-04T10:22:37;15.20;99.90
76120;DHT22;64852;48.092;-1.640;2022-11-04T10:25:14;15.30;99.90
76120;DHT22;64852;48.092;-1.640;2022-11-04T10:27:43;14.30;99.90
76120;DHT22;64852;48.092;-1.640;2022-11-04T10:30:21;15.50;99.90
76120;DHT22;64852;48.092;-1.640;2022-11-04T10:36:04;15.60;99.90
76120;DHT22;64852;48.092;-1.640;2022-11-04T10:38:43;15.50;99.90
76120;DHT22;64852;48.092;-1.640;2022-11-04T10:41:33;15.30;99.90
76120;DHT22;64852;48.092;-1.640;2022-11-04T10:44:15;15.40;99.90
76120;DHT22;64852;48.092;-1.640;2022-11-04T10:47:09;15.50;99.90
76120;DHT22;64852;48.092;-1.640;2022-11-04T10:52:32;16.00;99.90
76120;DHT22;64852;48.092;-1.640;2022-11-04T10:54:59;16.00;99.90
76120;DHT22;64852;48.092;-1.640;2022-11-04T10:57:25;16.20;99.90
76120;DHT22;64852;48.092;-1.640;2022-11-04T10:59:56;16.30;99.90
76120;DHT22;64852;48.092;-1.640;2022-11-04T11:02:51;16.20;99.90
76120;DHT22;64852;48.092;-1.640;2022-11-04T11:07:43;16.20;99.90
76120;DHT22;64852;48.092;-1.640;2022-11-04T11:10:29;16.40;99.90
76120;DHT22;64852;48.092;-1.640;2022-11-04T11:15:28;16.30;99.90
76120;DHT22;64852;48.092;-1.640;2022-11-04T11:20:25;16.30;99.90
76120;DHT22;64852;48.092;-1.640;2022-11-04T11:22:52;16.20;99.90
76120;DHT22;64852;48.092;-1.640;2022-11-04T11:25:29;16.40;99.90
76120;DHT22;64852;48.092;-1.640;2022-11-04T11:28:02;16.40;99.90
76120;DHT22;64852;48.092;-1.640;2022-11-04T11:33:34;16.90;99.90
76120;DHT22;64852;48.092;-1.640;2022-11-04T11:41:29;17.30;99.90
76120;DHT22;64852;48.092;-1.640;2022-11-04T11:44:16;17.20;99.90
76120;DHT22;64852;48.092;-1.640;2022-11-04T11:46:53;17.40;99.90
76120;DHT22;64852;48.092;-1.640;2022-11-04T11:49:25;17.40;99.90
76120;DHT22;64852;48.092;-1.640;2022-11-04T11:51:54;17.60;99.90
76120;DHT22;64852;48.092;-1.640;2022-11-04T11:54:25;17.70;99.90
76120;DHT22;64852;48.092;-1.640;2022-11-04T11:56:55;17.80;99.90
76120;DHT22;64852;48.092;-1.640;2022-11-04T12:02:43;17.50;99.90
76120;DHT22;64852;48.092;-1.640;2022-11-04T12:05:11;17.50;99.90
76120;DHT22;64852;48.092;-1.640;2022-11-04T12:10:09;17.70;99.90
76120;DHT22;64852;48.092;-1.640;2022-11-04T12:21:21;17.00;99.90
76120;DHT22;64852;48.092;-1.640;2022-11-04T12:24:31;17.80;99.90
76120;DHT22;64852;48.092;-1.640;2022-11-04T12:30:11;18.80;99.90
76120;DHT22;64852;48.092;-1.640;2022-11-04T12:52:43;20.00;99.90
76120;DHT22;64852;48.092;-1.640;2022-11-04T13:00:37;19.50;99.90
76120;DHT22;64852;48.092;-1.640;2022-11-04T13:08:41;18.70;96.40
76120;DHT22;64852;48.092;-1.640;2022-11-04T13:14:09;18.10;99.90
76120;DHT22;64852;48.092;-1.640;2022-11-04T13:16:41;18.00;99.90
76120;DHT22;64852;48.092;-1.640;2022-11-04T13:19:21;17.70;99.90
76120;DHT22;64852;48.092;-1.640;2022-11-04T13:21:48;17.50;99.90
76120;DHT22;64852;48.092;-1.640;2022-11-04T13:26:50;17.60;99.90
76120;DHT22;64852;48.092;-1.640;2022-11-04T13:29:18;17.80;99.90
76120;DHT22;64852;48.092;-1.640;2022-11-04T13:37:17;17.60;99.90
76120;DHT22;64852;48.092;-1.640;2022-11-04T13:39:55;17.70;99.90
76120;DHT22;64852;48.092;-1.640;2022-11-04T13:45:12;18.30;99.90
76120;DHT22;64852;48.092;-1.640;2022-11-04T13:47:57;18.80;99.90
76120;DHT22;64852;48.092;-1.640;2022-11-04T13:50:36;19.10;99.90
76120;DHT22;64852;48.092;-1.640;2022-11-04T13:53:04;19.30;99.90
76120;DHT22;64852;48.092;-1.640;2022-11-04T13:55:30;19.40;99.50
76120;DHT22;64852;48.092;-1.640;2022-11-04T13:57:58;19.40;93.80
76120;DHT22;64852;48.092;-1.640;2022-11-04T14:00:27;19.40;97.70
76120;DHT22;64852;48.092;-1.640;2022-11-04T14:02:54;19.50;95.20
76120;DHT22;64852;48.092;-1.640;2022-11-04T14:18:50;18.70;90.70
76120;DHT22;64852;48.092;-1.640;2022-11-04T14:21:16;18.70;90.00
76120;DHT22;64852;48.092;-1.640;2022-11-04T14:23:45;18.50;82.70
76120;DHT22;64852;48.092;-1.640;2022-11-04T14:26:13;18.60;88.20
76120;DHT22;64852;48.092;-1.640;2022-11-04T14:28:45;18.70;92.50
76120;DHT22;64852;48.092;-1.640;2022-11-04T14:31:36;18.80;86.30
76120;DHT22;64852;48.092;-1.640;2022-11-04T14:34:04;18.70;95.20
76120;DHT22;64852;48.092;-1.640;2022-11-04T14:36:55;18.90;90.70
76120;DHT22;64852;48.092;-1.640;2022-11-04T14:39:24;19.20;93.70
76120;DHT22;64852;48.092;-1.640;2022-11-04T14:41:59;19.60;90.40
76120;DHT22;64852;48.092;-1.640;2022-11-04T14:44:40;19.70;81.60
76120;DHT22;64852;48.092;-1.640;2022-11-04T14:49:49;18.90;74.80
76120;DHT22;64852;48.092;-1.640;2022-11-04T14:52:36;18.70;78.10
76120;DHT22;64852;48.092;-1.640;2022-11-04T14:57:37;18.10;79.80
76120;DHT22;64852;48.092;-1.640;2022-11-04T15:02:57;17.70;77.30
76120;DHT22;64852;48.092;-1.640;2022-11-04T15:05:26;17.60;79.60
76120;DHT22;64852;48.092;-1.640;2022-11-04T15:07:53;17.10;79.60
76120;DHT22;64852;48.092;-1.640;2022-11-04T15:10:22;17.10;85.70
76120;DHT22;64852;48.092;-1.640;2022-11-04T15:12:50;17.20;85.70
76120;DHT22;64852;48.092;-1.640;2022-11-04T15:15:29;17.20;87.60
76120;DHT22;64852;48.092;-1.640;2022-11-04T15:18:06;17.20;89.10
76120;DHT22;64852;48.092;-1.640;2022-11-04T15:20:37;17.10;89.10
76120;DHT22;64852;48.092;-1.640;2022-11-04T15:23:08;17.20;86.70
76120;DHT22;64852;48.092;-1.640;2022-11-04T15:25:44;16.90;86.10
76120;DHT22;64852;48.092;-1.640;2022-11-04T15:28:27;17.10;88.10
76120;DHT22;64852;48.092;-1.640;2022-11-04T15:31:20;17.10;87.90
76120;DHT22;64852;48.092;-1.640;2022-11-04T15:33:49;17.10;87.70
76120;DHT22;64852;48.092;-1.640;2022-11-04T15:36:28;17.10;86.00
76120;DHT22;64852;48.092;-1.640;2022-11-04T15:41:39;16.90;90.10
76120;DHT22;64852;48.092;-1.640;2022-11-04T15:44:33;17.00;90.30
76120;DHT22;64852;48.092;-1.640;2022-11-04T15:47:21;16.70;91.80
76120;DHT22;64852;48.092;-1.640;2022-11-04T15:49:49;16.80;91.50
76120;DHT22;64852;48.092;-1.640;2022-11-04T15:52:26;16.90;90.40
76120;DHT22;64852;48.092;-1.640;2022-11-04T15:54:54;16.80;89.10
76120;DHT22;64852;48.092;-1.640;2022-11-04T15:57:32;16.80;90.10
76120;DHT22;64852;48.092;-1.640;2022-11-04T16:00:05;16.60;91.80
76120;DHT22;64852;48.092;-1.640;2022-11-04T16:02:37;16.60;92.50
76120;DHT22;64852;48.092;-1.640;2022-11-04T16:07:51;16.60;92.50
76120;DHT22;64852;48.092;-1.640;2022-11-04T16:10:31;16.60;92.60
76120;DHT22;64852;48.092;-1.640;2022-11-04T16:13:23;16.60;91.90
76120;DHT22;64852;48.092;-1.640;2022-11-04T16:18:22;16.60;90.90
76120;DHT22;64852;48.092;-1.640;2022-11-04T16:20:50;16.40;92.60
76120;DHT22;64852;48.092;-1.640;2022-11-04T16:23:20;16.40;92.20
76120;DHT22;64852;48.092;-1.640;2022-11-04T16:25:55;16.40;92.70
76120;DHT22;64852;48.092;-1.640;2022-11-04T16:28:21;16.30;94.00
76120;DHT22;64852;48.092;-1.640;2022-11-04T16:31:01;16.30;94.10
76120;DHT22;64852;48.092;-1.640;2022-11-04T16:33:27;16.20;95.10
76120;DHT22;64852;48.092;-1.640;2022-11-04T16:35:53;16.30;94.50
76120;DHT22;64852;48.092;-1.640;2022-11-04T16:38:19;16.20;94.50
76120;DHT22;64852;48.092;-1.640;2022-11-04T16:40:46;16.20;93.40
76120;DHT22;64852;48.092;-1.640;2022-11-04T16:43:13;16.10;95.40
76120;DHT22;64852;48.092;-1.640;2022-11-04T16:45:44;16.10;94.80
76120;DHT22;64852;48.092;-1.640;2022-11-04T16:48:20;16.10;96.30
76120;DHT22;64852;48.092;-1.640;2022-11-04T16:50:46;16.00;96.30
76120;DHT22;64852;48.092;-1.640;2022-11-04T16:53:13;16.00;97.30
76120;DHT22;64852;48.092;-1.640;2022-11-04T16:55:40;15.90;98.80
76120;DHT22;64852;48.092;-1.640;2022-11-04T16:58:06;15.90;99.20
76120;DHT22;64852;48.092;-1.640;2022-11-04T17:00:32;15.90;99.80
76120;DHT22;64852;48.092;-1.640;2022-11-04T17:02:59;15.90;99.30
76120;DHT22;64852;48.092;-1.640;2022-11-04T17:05:25;15.90;99.90
76120;DHT22;64852;48.092;-1.640;2022-11-04T17:07:51;15.90;99.60
76120;DHT22;64852;48.092;-1.640;2022-11-04T17:10:25;16.00;99.90
76120;DHT22;64852;48.092;-1.640;2022-11-04T17:12:51;15.80;99.90
76120;DHT22;64852;48.092;-1.640;2022-11-04T17:15:17;15.90;99.90
76120;DHT22;64852;48.092;-1.640;2022-11-04T17:17:43;16.00;99.90
76120;DHT22;64852;48.092;-1.640;2022-11-04T17:20:14;15.80;99.90
76120;DHT22;64852;48.092;-1.640;2022-11-04T17:22:41;15.80;99.90
76120;DHT22;64852;48.092;-1.640;2022-11-04T17:25:20;15.80;99.90
76120;DHT22;64852;48.092;-1.640;2022-11-04T17:27:46;15.70;99.90
76120;DHT22;64852;48.092;-1.640;2022-11-04T17:30:12;15.60;99.90
76120;DHT22;64852;48.092;-1.640;2022-11-04T17:32:39;15.50;99.90
76120;DHT22;64852;48.092;-1.640;2022-11-04T17:35:05;15.40;99.90
76120;DHT22;64852;48.092;-1.640;2022-11-04T17:37:31;15.50;99.90
76120;DHT22;64852;48.092;-1.640;2022-11-04T17:39:56;15.50;99.90
76120;DHT22;64852;48.092;-1.640;2022-11-04T17:42:22;15.50;99.90
76120;DHT22;64852;48.092;-1.640;2022-11-04T17:45:06;15.40;99.90
76120;DHT22;64852;48.092;-1.640;2022-11-04T17:47:36;15.10;99.90
76120;DHT22;64852;48.092;-1.640;2022-11-04T17:50:03;15.00;99.90
76120;DHT22;64852;48.092;-1.640;2022-11-04T17:52:31;15.00;99.90
76120;DHT22;64852;48.092;-1.640;2022-11-04T17:54:56;15.00;99.90
76120;DHT22;64852;48.092;-1.640;2022-11-04T17:57:22;15.00;99.90
76120;DHT22;64852;48.092;-1.640;2022-11-04T17:59:47;14.90;99.90
76120;DHT22;64852;48.092;-1.640;2022-11-04T18:02:13;14.90;99.90
76120;DHT22;64852;48.092;-1.640;2022-11-04T18:04:38;15.00;99.90
76120;DHT22;64852;48.092;-1.640;2022-11-04T18:07:04;14.90;99.90
76120;DHT22;64852;48.092;-1.640;2022-11-04T18:09:30;14.90;99.90
76120;DHT22;64852;48.092;-1.640;2022-11-04T18:11:59;14.90;99.90
76120;DHT22;64852;48.092;-1.640;2022-11-04T18:14:43;14.90;99.90
76120;DHT22;64852;48.092;-1.640;2022-11-04T18:17:09;14.80;99.90
76120;DHT22;64852;48.092;-1.640;2022-11-04T18:19:35;14.90;99.90
76120;DHT22;64852;48.092;-1.640;2022-11-04T18:22:00;14.80;99.90
76120;DHT22;64852;48.092;-1.640;2022-11-04T18:24:26;14.90;99.90
76120;DHT22;64852;48.092;-1.640;2022-11-04T18:26:52;14.70;99.90